ADDS METAR Data INFO
IDs: Format: Raw Decoded Include TAF

Data at: 1920 UTC 09 Dec 2016

Region: TOP
KATL 091852Z 32013KT 10SM CLR 06/M09 A3041 RMK AO2 SLP305 T00611089

KBOS 091854Z 30020G25KT 10SM FEW055 02/M12 A2996 RMK AO2 PK WND 29027/1841 SLP146 T00171117

KBWI 091854Z 30014G26KT 10SM SCT047 04/M09 A3027 RMK AO2 PK WND 31026/1847 SLP252 T00391089

KCLE 091851Z 25013KT 10SM FEW021 BKN027 OVC080 M01/M07 A3039 RMK AO2 SLP303 T10061072

KCLT 091852Z 29003KT 10SM CLR 06/M10 A3038 RMK AO2 SLP291 T00561100

KCVG 091852Z 27007KT 210V290 9SM OVC026 M04/M11 A3051 RMK AO2 SLP343 SNE37 OCNL -SN P0000 T10441106

KDCA 091852Z 29015G24KT 10SM SCT050 04/M09 A3031 RMK AO2 PK WND 28026/1758 SLP265 T00441089

KDEN 091853Z 26004KT 10SM FEW025 FEW220 10/M03 A3007 RMK AO2 SLP204 T01001033

KDFW 091853Z 00000KT 10SM OVC055 02/M11 A3057 RMK AO2 SLP356 T00221111

KDTW 091853Z 28011KT 10SM SCT045 OVC065 M01/M08 A3037 RMK AO2 SLP293 T10061083

KEWR 091851Z 29016G29KT 10SM SCT060 03/M11 A3011 RMK AO2 PK WND 31032/1754 SLP195 T00331111

KFLL 091853Z 02011KT 10SM BKN023 BKN090 23/18 A3013 RMK AO2 SLP204 T02330178

KIAD 091852Z 32016G22KT 10SM FEW050 03/M09 A3032 RMK AO2 PK WND 30030/1803 SLP270 T00281094

KIAH 091853Z 05007KT 10SM FEW090 09/M06 A3054 RMK AO2 SLP343 T00891056

KJFK 091851Z 31022G28KT 10SM SCT060 06/M12 A3010 RMK AO2 PK WND 31034/1832 SLP191 T00561117

KLAS 091856Z 00000KT 10SM BKN048 BKN060 OVC220 11/M12 A3029 RMK AO2 SLP257 FU VC N T01111122

KLAX 091853Z 10005KT 6SM HZ BKN015 BKN140 16/10 A3026 RMK AO2 SLP245 T01610100

KLGA 091851Z 31023G30KT 10SM SCT065 05/M08 A3009 RMK AO2 PK WND 32034/1809 SLP189 T00501083

KMCO 091853Z 01012KT 10SM SCT160 BKN240 16/07 A3027 RMK AO2 SLP250 T01610072

KMDW 091853Z 30012KT 10SM -SN OVC030 M03/M11 A3051 RMK AO2 SLP346 P0000 T10331106

KMEM 091854Z VRB04KT 10SM FEW250 03/M08 A3061 RMK AO2 SLP367 T00281078

KMIA 091853Z 03009G16KT 10SM SCT027 BKN075 BKN150 24/18 A3014 RMK AO2 SLP205 T02440183

KMSP 091853Z 25008KT 10SM BKN022 M08/M14 A3052 RMK AO2 SLP352 T10831139

KORD 091851Z 28010KT 10SM -SN OVC032 M04/M11 A3049 RMK AO2 SLP335 P0000 T10391106

KPDX 091910Z 11011KT 3SM -FZRA BR SCT007 BKN014 OVC020 00/M02 A3005 RMK AO2 SFC VIS 4 UPB02E04FZRAB04 P0000 I1000 T00001017

KPHL 091854Z 30011G21KT 10SM BKN050 03/M08 A3022 RMK AO2 SLP234 T00281083

KPHX 091851Z 10008KT 10SM FEW250 20/03 A3023 RMK AO2 SLP227 T02000028

KPIT 091851Z 26007KT 10SM OVC019 M03/M08 A3034 RMK AO2 SLP297 T10281078

KSAN 091851Z 30005KT 10SM FEW015 BKN200 BKN250 18/11 A3027 RMK AO2 SLP248 T01780111

KSEA 091853Z COR 12013KT 8SM -RA BKN015 OVC023 01/M01 A2998 RMK AO2 SLP163 P0003 T00061006

KSFO 091856Z 00000KT 10SM FEW010 BKN014 OVC020 14/13 A3025 RMK AO2 SLP244 T01390128 $

KSLC 091854Z 00000KT 7SM FEW080 OVC120 03/M01 A3019 RMK AO2 SLP234 VIRGA ACSL SW T00331006

KSTL 091851Z 27008KT 10SM FEW028 BKN130 BKN250 M02/M11 A3060 RMK AO2 SLP379 T10221111

KTPA 091853Z 05006KT 10SM BKN170 15/04 A3028 RMK AO2 SLP252 T01500039